Time;durP1;ratioP1;P1;durP2;ratioP2;P2;SDS_P1;SDS_P2;PMS_P1;PMS_P2;Temp;Humidity;BMP_temperature;BMP_pressure;BME280_temperature;BME280_humidity;BME280_pressure;Samples;Min_cycle;Max_cycle;Signal;HPM_P1;HPM_P2
2023/08/13 00:01:14;;;;;;;5.30;3.40;;;21.70;99.90;;;;;;4977236;28;20023;-83
2023/08/13 00:03:39;;;;;;;6.03;3.38;;;21.60;99.90;;;;;;4977856;28;20420;-89
2023/08/13 00:06:05;;;;;;;7.20;3.22;;;21.70;99.90;;;;;;4977755;28;20030;-89
2023/08/13 00:08:31;;;;;;;6.63;3.35;;;21.70;99.90;;;;;;4994068;28;20092;-90
2023/08/13 00:10:56;;;;;;;8.27;3.15;;;21.70;99.90;;;;;;4977556;28;20065;-89
2023/08/13 00:13:22;;;;;;;6.65;3.50;;;21.60;99.90;;;;;;4976906;28;20022;-89
2023/08/13 00:15:48;;;;;;;8.43;4.18;;;21.60;99.90;;;;;;4994601;28;20033;-89
2023/08/13 00:18:13;;;;;;;11.93;3.85;;;21.60;99.90;;;;;;4977186;28;20042;-85
2023/08/13 00:20:39;;;;;;;8.82;3.55;;;21.50;99.90;;;;;;4977530;28;20023;-90
2023/08/13 00:23:30;;;;;;;7.90;3.80;;;21.40;99.90;;;;;;4998459;28;20044;-88
2023/08/13 00:25:55;;;;;;;6.17;3.70;;;21.40;99.90;;;;;;4994094;28;20035;-91
2023/08/13 00:28:21;;;;;;;5.97;3.53;;;21.40;99.90;;;;;;4977533;28;20061;-90
2023/08/13 00:30:46;;;;;;;7.07;3.72;;;21.40;99.90;;;;;;4978140;28;20547;-90
2023/08/13 00:33:12;;;;;;;7.13;3.90;;;21.40;99.90;;;;;;4978630;28;20033;-85
2023/08/13 00:35:38;;;;;;;5.60;3.78;;;21.40;99.90;;;;;;4982326;28;20073;-91
2023/08/13 00:38:03;;;;;;;7.07;3.92;;;21.50;99.90;;;;;;4982511;28;20030;-90
2023/08/13 00:40:29;;;;;;;9.25;3.83;;;21.50;99.90;;;;;;4980551;28;20443;-90
2023/08/13 00:42:55;;;;;;;5.38;3.50;;;21.50;99.90;;;;;;4998972;28;20031;-91
2023/08/13 00:45:20;;;;;;;6.00;3.30;;;21.40;99.90;;;;;;4986235;28;20046;-91
2023/08/13 00:47:47;;;;;;;5.15;3.63;;;21.40;99.90;;;;;;4988645;28;20030;-93
2023/08/13 00:50:13;;;;;;;5.78;3.80;;;21.30;99.90;;;;;;4998679;28;20061;-87
2023/08/13 00:52:39;;;;;;;6.05;3.13;;;21.30;99.90;;;;;;4994394;28;20030;-92
2023/08/13 00:55:05;;;;;;;5.32;3.45;;;21.30;99.90;;;;;;4994903;28;20034;-93
2023/08/13 00:57:32;;;;;;;9.60;3.58;;;21.30;99.90;;;;;;4976929;28;20129;-93
2023/08/13 00:59:58;;;;;;;6.18;3.58;;;21.20;99.90;;;;;;4994321;28;20031;-93
2023/08/13 01:02:24;;;;;;;5.80;3.78;;;21.20;99.90;;;;;;4976672;28;20023;-93
2023/08/13 01:04:50;;;;;;;4.90;3.30;;;21.20;99.90;;;;;;4977784;28;20038;-93
2023/08/13 01:07:23;;;;;;;5.82;2.92;;;21.20;99.90;;;;;;4976925;28;20494;-84
2023/08/13 01:10:09;;;;;;;5.82;3.70;;;21.10;99.90;;;;;;4977229;28;20026;-94
2023/08/13 01:12:49;;;;;;;10.52;3.25;;;21.10;99.90;;;;;;4993905;28;20032;-94
2023/08/13 01:15:20;;;;;;;5.80;3.22;;;21.10;99.90;;;;;;4993702;28;20037;-89
2023/08/13 01:17:48;;;;;;;4.55;3.38;;;21.10;99.90;;;;;;4977434;28;20034;-93
2023/08/13 01:20:15;;;;;;;5.28;3.28;;;21.20;99.90;;;;;;4994543;28;20027;-94
2023/08/13 01:22:50;;;;;;;4.57;3.10;;;21.10;99.90;;;;;;4997912;28;20050;-93
2023/08/13 01:25:17;;;;;;;8.52;3.53;;;21.10;99.90;;;;;;4980725;28;20118;-86
2023/08/13 01:27:53;;;;;;;7.60;3.53;;;21.10;99.90;;;;;;4997664;28;20030;-93
2023/08/13 01:30:31;;;;;;;6.35;3.40;;;21.10;99.90;;;;;;4997693;28;20030;-87
2023/08/13 01:33:02;;;;;;;7.57;3.33;;;21.10;99.90;;;;;;4981102;28;20031;-92
2023/08/13 01:35:31;;;;;;;8.32;3.58;;;21.10;99.90;;;;;;4997980;28;20034;-93
2023/08/13 01:38:01;;;;;;;4.05;3.45;;;21.10;99.90;;;;;;4980806;28;20092;-94
2023/08/13 01:40:27;;;;;;;9.90;3.50;;;21.10;99.90;;;;;;4980253;28;20109;-93
2023/08/13 01:42:53;;;;;;;8.02;3.20;;;21.10;99.90;;;;;;4980665;28;20062;-93
2023/08/13 01:45:19;;;;;;;6.10;3.28;;;21.10;99.90;;;;;;4997684;28;20046;-83
2023/08/13 01:47:45;;;;;;;5.20;3.40;;;21.00;99.90;;;;;;4980571;28;20038;-94
2023/08/13 01:50:12;;;;;;;4.55;3.50;;;21.10;99.90;;;;;;4980571;28;20088;-93
2023/08/13 01:52:37;;;;;;;8.63;3.00;;;21.10;99.90;;;;;;4979866;28;20033;-93
2023/08/13 01:55:04;;;;;;;9.10;3.85;;;21.10;99.90;;;;;;4997511;28;20023;-92
2023/08/13 01:57:29;;;;;;;7.78;3.40;;;21.10;99.90;;;;;;4997349;28;20050;-92
2023/08/13 01:59:55;;;;;;;10.13;3.60;;;21.10;99.90;;;;;;4997581;28;20482;-93
2023/08/13 02:02:20;;;;;;;4.70;3.08;;;21.10;99.90;;;;;;4979901;28;20485;-86
2023/08/13 02:04:46;;;;;;;5.18;3.13;;;21.10;99.90;;;;;;4980221;28;20518;-93
2023/08/13 02:07:12;;;;;;;8.60;3.58;;;21.10;99.90;;;;;;4979822;28;20026;-94
2023/08/13 02:09:37;;;;;;;6.93;3.17;;;21.10;99.90;;;;;;4996807;28;20113;-93
2023/08/13 02:12:03;;;;;;;3.30;2.85;;;21.10;99.90;;;;;;4980200;28;20023;-92
2023/08/13 02:14:29;;;;;;;8.55;3.50;;;21.10;99.90;;;;;;4997012;28;20023;-93
2023/08/13 02:16:54;;;;;;;5.50;3.70;;;21.10;99.90;;;;;;4979756;28;20150;-93
2023/08/13 02:19:20;;;;;;;5.00;2.72;;;21.10;99.90;;;;;;4979864;28;20026;-84
2023/08/13 02:21:45;;;;;;;5.57;3.53;;;21.10;99.90;;;;;;4979775;28;20494;-93
2023/08/13 02:24:11;;;;;;;4.55;2.70;;;21.10;99.90;;;;;;4997127;28;20125;-92
2023/08/13 02:26:37;;;;;;;3.88;2.83;;;21.10;99.90;;;;;;4996279;28;20023;-90
2023/08/13 02:29:02;;;;;;;6.78;3.20;;;21.20;99.90;;;;;;4996905;28;20140;-91
2023/08/13 02:31:28;;;;;;;10.23;3.83;;;21.20;99.90;;;;;;4996428;28;20034;-91
2023/08/13 02:33:53;;;;;;;4.70;3.45;;;21.20;99.90;;;;;;4996752;28;20041;-93
2023/08/13 02:36:19;;;;;;;5.75;3.00;;;21.30;99.90;;;;;;4979965;28;20058;-86
2023/08/13 02:38:44;;;;;;;4.15;2.88;;;21.30;99.90;;;;;;4996551;28;20042;-90
2023/08/13 02:41:10;;;;;;;4.45;3.30;;;21.30;99.90;;;;;;4979199;28;20081;-91
2023/08/13 02:43:55;;;;;;;4.95;3.10;;;21.30;99.90;;;;;;4994591;28;20034;-89
2023/08/13 02:46:22;;;;;;;5.00;3.20;;;21.30;99.90;;;;;;4994885;28;20126;-83
2023/08/13 02:48:48;;;;;;;5.30;3.67;;;21.30;99.90;;;;;;4996137;28;20030;-89
2023/08/13 02:51:14;;;;;;;7.38;3.50;;;21.20;99.90;;;;;;4996215;28;20038;-89
2023/08/13 02:53:43;;;;;;;9.75;3.67;;;21.20;99.90;;;;;;4994839;28;20030;-90
2023/08/13 02:56:10;;;;;;;5.45;3.25;;;21.20;99.90;;;;;;4996477;28;20117;-91
2023/08/13 02:58:35;;;;;;;7.70;3.60;;;21.20;99.90;;;;;;4995837;28;20046;-91
2023/08/13 03:01:01;;;;;;;6.32;3.53;;;21.20;99.90;;;;;;4995287;28;20034;-91
2023/08/13 03:03:27;;;;;;;4.65;3.25;;;21.20;99.90;;;;;;4995596;28;20026;-89
2023/08/13 03:05:53;;;;;;;6.72;3.33;;;21.20;99.90;;;;;;4995884;28;20105;-90
2023/08/13 03:08:19;;;;;;;4.82;3.30;;;21.20;99.90;;;;;;4981401;28;20061;-89
2023/08/13 03:10:45;;;;;;;6.43;3.58;;;21.20;99.90;;;;;;4986083;28;20263;-89
2023/08/13 03:13:10;;;;;;;5.45;3.05;;;21.20;99.90;;;;;;4992438;28;20029;-88
2023/08/13 03:15:36;;;;;;;7.72;2.97;;;21.20;99.90;;;;;;4991859;28;20112;-89
2023/08/13 03:18:02;;;;;;;8.48;3.53;;;21.10;99.90;;;;;;4994009;28;20035;-90
2023/08/13 03:20:28;;;;;;;6.15;3.30;;;21.20;99.90;;;;;;4980397;28;20032;-89
2023/08/13 03:22:53;;;;;;;7.00;3.13;;;21.20;99.90;;;;;;4966463;28;20018;-89
2023/08/13 03:25:19;;;;;;;6.53;3.15;;;21.20;99.90;;;;;;4975061;28;20122;-90
2023/08/13 03:27:46;;;;;;;6.13;3.03;;;21.20;99.90;;;;;;4984285;28;20272;-92
2023/08/13 03:30:11;;;;;;;4.95;2.95;;;21.20;99.90;;;;;;4969297;28;20035;-91
2023/08/13 03:32:37;;;;;;;4.95;2.50;;;21.20;99.90;;;;;;4978847;28;20030;-91
2023/08/13 03:35:03;;;;;;;3.72;2.67;;;21.20;99.90;;;;;;4993660;28;20037;-91
2023/08/13 03:37:28;;;;;;;7.32;3.03;;;21.10;99.90;;;;;;4976933;28;20109;-90
2023/08/13 03:39:54;;;;;;;4.97;3.05;;;21.00;99.90;;;;;;4978185;28;20026;-90
2023/08/13 03:42:20;;;;;;;5.03;3.20;;;21.00;99.90;;;;;;4993772;28;20103;-91
2023/08/13 03:44:45;;;;;;;7.72;2.80;;;21.10;99.90;;;;;;4990190;28;20066;-90
2023/08/13 03:47:11;;;;;;;6.40;2.80;;;21.10;99.90;;;;;;4987480;28;20066;-89
2023/08/13 03:49:36;;;;;;;5.13;2.70;;;21.00;99.90;;;;;;4960747;28;20023;-89
2023/08/13 03:52:02;;;;;;;7.72;3.08;;;21.00;99.90;;;;;;4974965;28;20027;-90
2023/08/13 03:54:28;;;;;;;7.25;3.03;;;21.00;99.90;;;;;;4968610;28;20026;-89
2023/08/13 03:56:54;;;;;;;3.25;2.35;;;21.00;99.90;;;;;;4975326;28;20074;-90
2023/08/13 03:59:19;;;;;;;4.75;2.47;;;21.00;99.90;;;;;;4973048;28;20042;-91
2023/08/13 04:01:45;;;;;;;4.63;2.50;;;21.00;99.90;;;;;;4967853;28;20113;-91
2023/08/13 04:04:11;;;;;;;5.97;2.72;;;21.00;99.90;;;;;;4972543;28;20027;-90
2023/08/13 04:06:36;;;;;;;5.88;2.42;;;21.00;99.90;;;;;;4975505;28;20117;-91
2023/08/13 04:09:02;;;;;;;4.15;2.50;;;20.90;99.90;;;;;;4975513;28;20023;-90
2023/08/13 04:11:28;;;;;;;6.00;2.15;;;20.90;99.90;;;;;;4977871;28;20026;-85
2023/08/13 04:13:53;;;;;;;5.85;2.38;;;20.90;99.90;;;;;;4975324;28;20103;-89
2023/08/13 04:16:20;;;;;;;6.10;2.63;;;21.00;99.90;;;;;;4974270;29;20032;-89
2023/08/13 04:18:45;;;;;;;4.50;2.40;;;20.90;99.90;;;;;;4975435;28;20123;-89
2023/08/13 04:21:11;;;;;;;7.28;2.33;;;20.90;99.90;;;;;;4994148;28;20018;-89
2023/08/13 04:23:37;;;;;;;5.43;2.45;;;20.90;99.90;;;;;;5003845;28;20027;-88
2023/08/13 04:26:02;;;;;;;5.43;2.10;;;20.90;99.90;;;;;;4983921;28;20035;-89
2023/08/13 04:28:28;;;;;;;5.57;2.40;;;20.90;99.90;;;;;;4988950;28;20050;-84
2023/08/13 04:30:54;;;;;;;7.30;2.30;;;20.90;99.90;;;;;;4993293;28;20031;-87
2023/08/13 04:33:21;;;;;;;2.97;2.00;;;20.90;99.90;;;;;;5006206;28;20053;-87
2023/08/13 04:35:50;;;;;;;3.63;2.17;;;20.90;99.90;;;;;;4998139;28;20298;-90
2023/08/13 04:38:16;;;;;;;8.88;2.30;;;20.90;99.90;;;;;;5009417;28;20388;-89
2023/08/13 04:40:41;;;;;;;5.70;2.47;;;20.90;99.90;;;;;;4995855;28;20019;-90
2023/08/13 04:43:07;;;;;;;5.70;2.58;;;20.90;99.90;;;;;;4974830;28;20039;-91
2023/08/13 04:45:33;;;;;;;4.63;2.40;;;20.90;99.90;;;;;;4984479;28;20039;-91
2023/08/13 04:47:58;;;;;;;5.93;2.38;;;20.90;99.90;;;;;;4962376;28;20035;-88
2023/08/13 04:50:24;;;;;;;5.50;2.40;;;20.90;99.90;;;;;;4970008;28;20077;-91
2023/08/13 04:52:49;;;;;;;3.78;2.00;;;20.90;99.90;;;;;;4990977;28;20127;-87
2023/08/13 04:55:15;;;;;;;4.80;2.50;;;20.90;99.90;;;;;;4961957;28;20026;-91
2023/08/13 04:57:40;;;;;;;3.83;2.60;;;20.90;99.90;;;;;;4979259;28;20140;-91
2023/08/13 05:00:08;;;;;;;3.17;2.15;;;21.00;99.90;;;;;;4986799;28;20035;-91
2023/08/13 05:02:34;;;;;;;5.15;2.33;;;21.00;99.90;;;;;;4963639;28;20024;-90
2023/08/13 05:05:00;;;;;;;4.53;2.13;;;20.90;99.90;;;;;;4993543;28;20049;-90
2023/08/13 05:07:26;;;;;;;6.10;2.70;;;20.90;99.90;;;;;;4977052;28;20031;-89
2023/08/13 05:09:51;;;;;;;5.40;2.55;;;20.90;99.90;;;;;;4983620;28;20029;-91
2023/08/13 05:12:17;;;;;;;3.30;2.30;;;20.90;99.90;;;;;;4988064;28;20022;-88
2023/08/13 05:14:43;;;;;;;8.45;2.30;;;21.00;99.90;;;;;;4980173;28;20027;-91
2023/08/13 05:17:19;;;;;;;4.43;2.28;;;20.90;99.90;;;;;;4993293;28;20026;-91
2023/08/13 05:19:45;;;;;;;4.80;3.13;;;21.10;99.90;;;;;;4966898;28;20241;-91
2023/08/13 05:22:10;;;;;;;3.08;2.30;;;21.00;99.90;;;;;;4996499;28;20022;-91
2023/08/13 05:24:36;;;;;;;4.30;2.30;;;21.10;99.90;;;;;;4980244;28;20027;-91
2023/08/13 05:27:02;;;;;;;4.18;2.08;;;21.20;99.90;;;;;;4993049;28;20502;-89
2023/08/13 05:29:27;;;;;;;3.45;2.40;;;21.20;99.90;;;;;;4959571;28;20030;-88
2023/08/13 05:31:53;;;;;;;6.47;2.70;;;21.20;99.90;;;;;;4985956;28;20026;-91
2023/08/13 05:34:19;;;;;;;4.38;2.70;;;21.20;99.90;;;;;;4979405;28;20023;-91
2023/08/13 05:36:44;;;;;;;2.85;2.30;;;21.20;99.90;;;;;;4979358;28;20110;-91
2023/08/13 05:39:10;;;;;;;4.13;2.60;;;21.20;99.90;;;;;;4978401;28;20030;-88
2023/08/13 05:41:36;;;;;;;4.22;3.00;;;21.20;99.90;;;;;;4988051;28;20455;-89
2023/08/13 05:44:02;;;;;;;5.85;3.10;;;21.20;99.90;;;;;;4930590;28;1121357;-89
2023/08/13 05:46:28;;;;;;;5.80;2.53;;;21.20;99.90;;;;;;4983536;28;20264;-88
2023/08/13 05:48:53;;;;;;;3.83;3.03;;;21.20;99.90;;;;;;4961642;28;20034;-88
2023/08/13 05:51:19;;;;;;;5.20;2.95;;;21.20;99.90;;;;;;4976040;28;20364;-88
2023/08/13 05:53:45;;;;;;;6.07;2.95;;;21.20;99.90;;;;;;4967805;28;20105;-89
2023/08/13 05:56:10;;;;;;;7.63;2.80;;;21.30;99.90;;;;;;4969686;28;20022;-89
2023/08/13 05:58:36;;;;;;;6.28;3.22;;;21.20;99.90;;;;;;4992325;28;20097;-90
2023/08/13 06:01:03;;;;;;;5.13;2.70;;;21.30;99.90;;;;;;4980370;28;20031;-88
2023/08/13 06:03:28;;;;;;;3.00;2.50;;;21.30;99.90;;;;;;4989956;28;20018;-87
2023/08/13 06:05:55;;;;;;;3.22;2.30;;;21.40;99.90;;;;;;4995368;28;20280;-88
2023/08/13 06:08:20;;;;;;;5.35;2.55;;;21.40;99.90;;;;;;4979620;28;20026;-89
2023/08/13 06:10:46;;;;;;;4.97;2.55;;;21.40;99.90;;;;;;4981175;28;20186;-89
2023/08/13 06:13:12;;;;;;;4.80;2.20;;;21.50;99.90;;;;;;4985703;28;20027;-88
2023/08/13 06:15:38;;;;;;;4.55;3.10;;;21.50;99.90;;;;;;4989924;28;20077;-89
2023/08/13 06:18:04;;;;;;;4.78;3.00;;;21.50;99.90;;;;;;4977411;28;20374;-89
2023/08/13 06:20:31;;;;;;;6.35;2.90;;;21.60;99.90;;;;;;4990338;28;20062;-89
2023/08/13 06:22:56;;;;;;;5.75;2.70;;;21.70;99.90;;;;;;4979873;28;20077;-89
2023/08/13 06:25:22;;;;;;;4.65;1.92;;;21.70;99.90;;;;;;4992089;28;20019;-88
2023/08/13 06:27:48;;;;;;;4.82;2.40;;;21.80;99.90;;;;;;4967322;28;20431;-89
2023/08/13 06:30:13;;;;;;;6.53;2.50;;;21.90;99.90;;;;;;4996883;28;20511;-89
2023/08/13 06:32:39;;;;;;;7.13;2.30;;;21.90;99.90;;;;;;4964391;28;20058;-89
2023/08/13 06:35:05;;;;;;;3.88;2.15;;;21.90;99.90;;;;;;4975864;28;20057;-90
2023/08/13 06:37:31;;;;;;;5.45;2.35;;;21.90;99.90;;;;;;4964932;28;20034;-88
2023/08/13 06:39:56;;;;;;;4.47;2.30;;;22.00;99.90;;;;;;4987684;28;20026;-88
2023/08/13 06:42:23;;;;;;;4.35;2.40;;;22.00;99.90;;;;;;4979135;28;20035;-89
2023/08/13 06:44:49;;;;;;;7.28;2.10;;;22.00;99.90;;;;;;4992544;28;20477;-89
2023/08/13 06:47:14;;;;;;;5.15;2.58;;;22.00;99.90;;;;;;4973094;28;20026;-89
2023/08/13 06:49:40;;;;;;;3.47;2.00;;;22.10;99.90;;;;;;4989093;28;20019;-89
2023/08/13 06:52:06;;;;;;;3.85;2.38;;;22.10;99.90;;;;;;4978395;28;20030;-89
2023/08/13 06:54:32;;;;;;;4.72;2.55;;;22.20;99.90;;;;;;4988768;28;20105;-88
2023/08/13 06:56:58;;;;;;;3.55;2.20;;;22.20;99.90;;;;;;4979981;28;20162;-87
2023/08/13 06:59:24;;;;;;;2.95;1.75;;;22.30;99.90;;;;;;4990278;28;20472;-88
2023/08/13 07:01:50;;;;;;;2.13;1.90;;;22.40;99.90;;;;;;4983843;28;20026;-89
2023/08/13 07:04:16;;;;;;;3.50;1.92;;;22.40;99.90;;;;;;4990310;28;20030;-89
2023/08/13 07:06:42;;;;;;;7.00;2.30;;;22.40;99.90;;;;;;4982572;28;20023;-89
2023/08/13 07:09:07;;;;;;;2.30;1.75;;;22.40;99.90;;;;;;4978469;28;20086;-89
2023/08/13 07:11:33;;;;;;;5.10;2.22;;;22.40;99.90;;;;;;4974311;28;20035;-88
2023/08/13 07:13:59;;;;;;;4.10;2.10;;;22.50;99.90;;;;;;4987903;28;20027;-89
2023/08/13 07:16:24;;;;;;;5.00;2.10;;;22.50;99.90;;;;;;4982263;28;20053;-88
2023/08/13 07:18:50;;;;;;;4.28;1.83;;;22.50;99.90;;;;;;4973910;28;20035;-88
2023/08/13 07:21:16;;;;;;;3.80;2.03;;;22.50;99.90;;;;;;4962543;28;20069;-89
2023/08/13 07:23:42;;;;;;;7.43;2.30;;;22.60;99.90;;;;;;4987908;28;20031;-89
2023/08/13 07:26:07;;;;;;;4.82;2.13;;;22.70;99.90;;;;;;4986404;28;20031;-88
2023/08/13 07:28:34;;;;;;;4.80;2.38;;;22.70;99.90;;;;;;4974308;28;20042;-88
2023/08/13 07:31:03;;;;;;;2.83;1.80;;;22.80;99.90;;;;;;4974217;28;20479;-87
2023/08/13 07:33:30;;;;;;;5.80;2.05;;;22.80;99.90;;;;;;4989722;28;20042;-88
2023/08/13 07:35:57;;;;;;;4.13;1.80;;;22.70;99.90;;;;;;4984871;28;20037;-87
2023/08/13 07:38:22;;;;;;;2.88;1.40;;;22.80;99.90;;;;;;4994890;28;20030;-88
2023/08/13 07:40:48;;;;;;;2.03;1.42;;;22.90;99.90;;;;;;4961353;28;20025;-87
2023/08/13 07:43:13;;;;;;;1.60;1.35;;;22.90;99.90;;;;;;4977973;28;20049;-88
2023/08/13 07:45:39;;;;;;;2.90;1.60;;;22.90;99.90;;;;;;4986541;28;20093;-87
2023/08/13 07:48:05;;;;;;;2.00;1.20;;;23.00;99.90;;;;;;4985769;28;20061;-86
2023/08/13 07:50:30;;;;;;;3.22;1.48;;;23.00;99.90;;;;;;4979948;28;20027;-81
2023/08/13 07:52:56;;;;;;;3.30;1.60;;;23.10;99.90;;;;;;4976733;28;20487;-87
2023/08/13 07:55:22;;;;;;;2.08;1.50;;;23.30;99.90;;;;;;4989754;28;20077;-86
2023/08/13 07:57:48;;;;;;;2.70;1.27;;;23.30;99.90;;;;;;4982884;28;20038;-87
2023/08/13 08:00:16;;;;;;;1.73;1.35;;;23.30;99.90;;;;;;4983382;28;20022;-87
2023/08/13 08:02:42;;;;;;;3.42;1.40;;;23.40;99.90;;;;;;4983929;28;20085;-87
2023/08/13 08:05:09;;;;;;;5.13;1.38;;;23.30;99.90;;;;;;4990380;28;20415;-86
2023/08/13 08:07:34;;;;;;;1.55;1.20;;;23.40;99.90;;;;;;4975544;28;20022;-87
2023/08/13 08:10:01;;;;;;;1.80;1.40;;;23.40;99.90;;;;;;4983572;28;20447;-87
2023/08/13 08:12:26;;;;;;;2.05;1.30;;;23.40;99.90;;;;;;4982034;28;20113;-87
2023/08/13 08:14:52;;;;;;;2.55;1.30;;;23.30;99.90;;;;;;4986758;28;20022;-86
2023/08/13 08:17:17;;;;;;;4.63;1.30;;;23.30;99.90;;;;;;4972807;28;20041;-87
2023/08/13 08:19:43;;;;;;;3.15;1.27;;;23.30;99.90;;;;;;4964719;28;20019;-88
2023/08/13 08:22:09;;;;;;;1.42;1.10;;;23.30;99.90;;;;;;4994133;28;20018;-87
2023/08/13 08:24:34;;;;;;;2.28;1.27;;;23.20;99.90;;;;;;4978764;28;20019;-87
2023/08/13 08:27:00;;;;;;;1.42;1.15;;;23.20;99.90;;;;;;4990667;28;20062;-87
2023/08/13 08:29:25;;;;;;;2.85;1.55;;;23.20;99.90;;;;;;4979545;28;20026;-87
2023/08/13 08:31:52;;;;;;;2.90;1.42;;;23.20;99.90;;;;;;4968876;28;20151;-86
2023/08/13 08:34:17;;;;;;;3.50;1.60;;;23.20;99.90;;;;;;4994441;28;20054;-87
2023/08/13 08:36:43;;;;;;;2.45;1.42;;;23.20;99.90;;;;;;4977791;28;20026;-88
2023/08/13 08:39:08;;;;;;;3.80;1.50;;;23.20;99.90;;;;;;4977168;28;20030;-86
2023/08/13 08:41:36;;;;;;;4.97;1.30;;;23.20;99.90;;;;;;4986493;28;20065;-87
2023/08/13 08:44:02;;;;;;;2.67;0.90;;;23.20;99.90;;;;;;4974094;28;20069;-86
2023/08/13 08:46:28;;;;;;;2.25;1.08;;;23.30;99.90;;;;;;4979987;28;20019;-88
2023/08/13 08:48:54;;;;;;;2.90;1.08;;;23.30;99.90;;;;;;4988608;28;20038;-86
2023/08/13 08:51:21;;;;;;;1.38;0.90;;;23.40;99.90;;;;;;4977806;28;20022;-86
2023/08/13 08:53:49;;;;;;;2.78;1.17;;;23.50;99.90;;;;;;4984619;28;20018;-87
2023/08/13 08:56:15;;;;;;;2.85;1.50;;;23.60;99.90;;;;;;4986362;28;20101;-88
2023/08/13 08:58:40;;;;;;;1.88;1.20;;;23.70;99.90;;;;;;4978632;28;20511;-88
2023/08/13 09:01:06;;;;;;;2.05;0.90;;;23.90;99.90;;;;;;4989396;28;20121;-86
2023/08/13 09:03:32;;;;;;;2.78;0.98;;;23.90;99.90;;;;;;4979911;28;20098;-88
2023/08/13 09:05:57;;;;;;;10.55;6.45;;;24.00;99.90;;;;;;4982062;28;20526;-87
2023/08/13 09:08:23;;;;;;;7.85;4.47;;;24.10;99.90;;;;;;4976347;28;20122;-85
2023/08/13 09:10:48;;;;;;;4.63;1.98;;;24.20;99.90;;;;;;4976661;28;20031;-87
2023/08/13 09:13:14;;;;;;;5.07;2.30;;;24.20;99.90;;;;;;4990662;28;20019;-87
2023/08/13 09:15:49;;;;;;;3.40;1.48;;;24.20;99.90;;;;;;4984331;28;20041;-90
2023/08/13 09:18:15;;;;;;;2.17;1.20;;;24.30;99.90;;;;;;4983972;28;20072;-91
2023/08/13 09:20:46;;;;;;;1.75;0.88;;;24.30;99.90;;;;;;4977736;28;20054;-91
2023/08/13 09:23:21;;;;;;;2.60;1.05;;;24.30;99.90;;;;;;4990267;28;20019;-91
2023/08/13 09:25:51;;;;;;;1.55;1.02;;;24.30;99.90;;;;;;4982427;28;20038;-91
2023/08/13 09:28:17;;;;;;;1.77;0.80;;;24.30;99.90;;;;;;4981791;28;20031;-92
2023/08/13 09:30:43;;;;;;;2.50;1.00;;;24.30;99.90;;;;;;4988598;28;20041;-91
2023/08/13 09:33:09;;;;;;;3.03;0.80;;;24.40;99.90;;;;;;4974921;28;20023;-90
2023/08/13 09:35:34;;;;;;;3.15;0.90;;;24.40;99.90;;;;;;4979520;28;20049;-82
2023/08/13 09:38:00;;;;;;;2.63;1.00;;;24.40;99.90;;;;;;4985023;28;20031;-91
2023/08/13 09:40:26;;;;;;;1.85;0.85;;;24.50;99.90;;;;;;4970850;28;20030;-91
2023/08/13 09:42:55;;;;;;;2.45;1.10;;;24.50;99.90;;;;;;4995902;28;20089;-91
2023/08/13 09:45:26;;;;;;;2.03;0.98;;;24.60;99.90;;;;;;4982022;28;20374;-90
2023/08/13 09:47:54;;;;;;;1.63;0.90;;;24.70;99.90;;;;;;4971628;28;20027;-91
2023/08/13 09:50:21;;;;;;;2.35;0.80;;;24.70;99.90;;;;;;4972881;28;20040;-91
2023/08/13 09:52:47;;;;;;;2.72;1.05;;;24.70;99.90;;;;;;4981328;28;20019;-91
2023/08/13 09:55:19;;;;;;;1.60;0.90;;;24.80;99.90;;;;;;4994367;28;20019;-91
2023/08/13 09:57:47;;;;;;;1.95;0.70;;;24.90;99.90;;;;;;4959992;28;20046;-89
2023/08/13 10:00:13;;;;;;;3.00;1.00;;;24.90;99.90;;;;;;4988745;28;20030;-88
2023/08/13 10:02:42;;;;;;;2.75;0.80;;;25.10;99.90;;;;;;4984160;28;20015;-88
2023/08/13 10:05:09;;;;;;;1.80;0.90;;;25.20;99.90;;;;;;4993407;28;20030;-87
2023/08/13 10:07:36;;;;;;;2.20;1.00;;;25.20;99.90;;;;;;4976674;28;20027;-87
2023/08/13 10:10:03;;;;;;;2.42;0.90;;;25.30;99.90;;;;;;4987174;28;20108;-87
2023/08/13 10:12:30;;;;;;;1.67;0.80;;;25.40;99.90;;;;;;4966564;28;20117;-88
2023/08/13 10:14:56;;;;;;;1.70;0.90;;;25.40;99.90;;;;;;4975620;28;20148;-88
2023/08/13 10:17:26;;;;;;;2.72;0.90;;;25.40;99.90;;;;;;4991070;28;20579;-88
2023/08/13 10:19:54;;;;;;;1.75;0.82;;;25.40;99.90;;;;;;4985566;28;20018;-88
2023/08/13 10:22:40;;;;;;;1.67;0.70;;;25.40;99.90;;;;;;4983956;28;20093;-87
2023/08/13 10:25:07;;;;;;;2.08;1.05;;;25.30;99.90;;;;;;4992174;28;20030;-87
2023/08/13 10:27:37;;;;;;;2.53;0.77;;;25.30;99.90;;;;;;4976227;28;20035;-88
2023/08/13 10:30:11;;;;;;;6.32;4.35;;;25.40;99.90;;;;;;4977696;28;20113;-89
2023/08/13 10:32:56;;;;;;;5.03;3.08;;;25.30;99.90;;;;;;4959780;28;20031;-80
2023/08/13 10:35:22;;;;;;;1.42;1.17;;;25.30;99.90;;;;;;4961340;28;20023;-86
2023/08/13 10:37:53;;;;;;;1.92;0.90;;;25.20;99.90;;;;;;4983523;28;20045;-89
2023/08/13 10:40:19;;;;;;;1.00;0.50;;;25.20;99.90;;;;;;4983326;28;20456;-86
2023/08/13 10:42:46;;;;;;;1.60;0.80;;;25.20;99.90;;;;;;4989839;28;20030;-88
2023/08/13 10:45:17;;;;;;;3.40;0.85;;;25.20;99.90;;;;;;4996130;28;20047;-90
2023/08/13 10:47:52;;;;;;;1.63;0.60;;;25.20;99.90;;;;;;4994835;28;20034;-90
2023/08/13 10:50:38;;;;;;;0.77;0.70;;;25.10;99.90;;;;;;4977066;28;20086;-90
2023/08/13 10:53:09;;;;;;;0.90;0.57;;;25.10;99.90;;;;;;4975929;28;20478;-89
2023/08/13 10:55:47;;;;;;;2.80;0.70;;;25.20;99.90;;;;;;4962746;28;20027;-91
2023/08/13 10:58:26;;;;;;;1.63;0.90;;;25.20;99.90;;;;;;4983639;28;20031;-90
2023/08/13 11:00:57;;;;;;;0.82;0.70;;;25.40;99.90;;;;;;4978081;28;20395;-87
2023/08/13 11:03:25;;;;;;;1.45;0.75;;;25.40;99.90;;;;;;4980689;28;20376;-90
2023/08/13 11:05:52;;;;;;;2.08;0.93;;;25.30;99.90;;;;;;4983063;28;20030;-89
2023/08/13 11:08:25;;;;;;;1.17;0.70;;;25.30;99.90;;;;;;4994958;28;20499;-88
2023/08/13 11:10:52;;;;;;;1.63;0.77;;;25.20;99.90;;;;;;4994297;28;20034;-87
2023/08/13 11:13:19;;;;;;;8.52;3.78;;;25.30;99.90;;;;;;4993407;28;20057;-88
2023/08/13 11:15:50;;;;;;;18.75;8.88;;;25.40;99.90;;;;;;4994578;28;20026;-87
2023/08/13 11:18:16;;;;;;;5.70;3.50;;;25.40;99.90;;;;;;4995122;28;20407;-89
2023/08/13 11:20:44;;;;;;;3.55;1.88;;;25.50;99.90;;;;;;4995250;28;20502;-84
2023/08/13 11:23:13;;;;;;;3.90;1.25;;;25.50;99.90;;;;;;4991679;28;20031;-89
2023/08/13 11:25:44;;;;;;;2.58;0.93;;;25.50;99.90;;;;;;4958908;28;20023;-84
2023/08/13 11:28:09;;;;;;;2.97;1.20;;;25.40;99.90;;;;;;4959194;28;20034;-89
2023/08/13 11:30:42;;;;;;;1.33;1.05;;;25.40;99.90;;;;;;4959023;28;20035;-91
2023/08/13 11:33:08;;;;;;;2.47;1.30;;;25.30;99.90;;;;;;4959578;28;20034;-88
2023/08/13 11:35:34;;;;;;;1.48;0.85;;;25.30;99.90;;;;;;4995233;28;20114;-91
2023/08/13 11:38:00;;;;;;;2.33;1.00;;;25.20;99.90;;;;;;4977474;28;20159;-90
2023/08/13 11:40:25;;;;;;;3.30;1.00;;;25.20;99.90;;;;;;4995077;28;20049;-91
2023/08/13 11:42:56;;;;;;;1.45;0.90;;;25.20;99.90;;;;;;4993125;28;20026;-92
2023/08/13 11:45:23;;;;;;;1.17;0.70;;;25.40;99.90;;;;;;4962618;28;20050;-88
2023/08/13 11:47:53;;;;;;;2.30;0.82;;;25.40;99.90;;;;;;4994729;28;20041;-90
2023/08/13 11:50:23;;;;;;;1.40;0.75;;;25.50;99.90;;;;;;4977449;28;20090;-91
2023/08/13 11:53:07;;;;;;;1.70;0.80;;;25.70;99.90;;;;;;4978377;28;20030;-93
2023/08/13 11:55:33;;;;;;;2.65;0.90;;;25.70;99.90;;;;;;4974615;28;20058;-91
2023/08/13 11:57:59;;;;;;;2.95;1.05;;;25.80;99.90;;;;;;4983845;28;20038;-91
2023/08/13 12:00:26;;;;;;;3.90;0.90;;;25.90;99.90;;;;;;4982492;28;20038;-92
2023/08/13 12:02:58;;;;;;;2.15;0.82;;;26.00;99.90;;;;;;4990410;28;20026;-90
2023/08/13 12:05:29;;;;;;;1.42;0.70;;;26.10;99.90;;;;;;4980583;28;20022;-89
2023/08/13 12:08:00;;;;;;;3.47;1.02;;;26.20;99.90;;;;;;4993296;28;20038;-88
2023/08/13 12:10:26;;;;;;;1.20;0.80;;;26.30;99.90;;;;;;4994790;28;20117;-89
2023/08/13 12:12:52;;;;;;;1.65;0.77;;;26.40;99.90;;;;;;4976766;28;20448;-87
2023/08/13 12:15:23;;;;;;;1.88;0.70;;;26.50;99.90;;;;;;4962063;28;20049;-89
2023/08/13 12:17:53;;;;;;;3.03;0.70;;;26.60;99.90;;;;;;4975079;28;20045;-92
2023/08/13 12:20:19;;;;;;;2.05;0.82;;;26.80;99.90;;;;;;4984892;28;20121;-90
2023/08/13 12:22:45;;;;;;;1.20;0.60;;;26.90;99.90;;;;;;4993024;28;20033;-84
2023/08/13 12:25:11;;;;;;;1.35;0.85;;;27.00;99.90;;;;;;4993285;28;20083;-87
2023/08/13 12:27:36;;;;;;;2.05;0.77;;;27.10;99.90;;;;;;4971258;28;20043;-86
2023/08/13 12:30:03;;;;;;;2.05;0.93;;;27.20;99.90;;;;;;4987465;28;20030;-90
2023/08/13 12:32:29;;;;;;;3.85;0.75;;;27.20;99.90;;;;;;4981439;28;20019;-89
2023/08/13 12:34:55;;;;;;;3.10;0.77;;;27.30;99.90;;;;;;4974452;28;20030;-89
2023/08/13 12:37:20;;;;;;;1.73;0.68;;;27.30;99.90;;;;;;4994364;28;20039;-89
2023/08/13 12:39:46;;;;;;;2.13;0.82;;;27.30;99.90;;;;;;4992731;28;20106;-86
2023/08/13 12:42:12;;;;;;;0.90;0.70;;;27.50;99.90;;;;;;4993833;28;20026;-88
2023/08/13 12:44:37;;;;;;;2.45;0.68;;;27.50;99.90;;;;;;4978598;28;20046;-88